Terminal Aerodrome Forecast
Issued by NWS

Home | Current Version | Previous Version | Text Only | Print | Product List | Glossary On
Versions: 1 2 3 4 5 6 7 8 9 10 11 12 13 14 15 16 17 18 19 20 21 22 23 24 25 26 27 28 29 30 31 32 33 34 35 36
156
FTUS41 KRNK 262045 AAC
TAFBCB
TAF AMD
KBCB 262045Z 2621/2718 00000KT P6SM FEW009 SCT030 BKN100
      TEMPO 2621/2622 -RA BKN030
     FM270300 21003KT P6SM SCT020 OVC120
     FM270800 00000KT 4SM BR OVC015
     FM271400 23004KT P6SM BKN025=

USA.gov is the U.S. government's official web portal to all federal, state and local government web resources and services.